Groote Eylandt Airport


Codes: YGTE/GTE
Name: Groote Eylandt Airport
City: Groote Eylandt
Country: Australia
Elevation: 53 ft.
Wikipedia:

Photos at Groote Eylandt Airport


   Photos courtesy of SpottingLog. You can add your own sightings and photos by signing up for a free trial today.



No photos found.

Weather at Groote Eylandt Airport


Time (UTC)DescriptionTempratureWindCloud coverageVisibilityPressureHumidity
13-Jun-2024 03:00Scattered Clouds28°C11 mph, SE45%10000m1015hPa45%
13-Jun-2024 06:00Scattered Clouds28°C11 mph, SE35%10000m1013hPa43%
13-Jun-2024 09:00Clear Sky21°C7 mph, SE3%10000m1013hPa69%
13-Jun-2024 12:00Clear Sky19°C4 mph, SE5%10000m1015hPa84%
13-Jun-2024 15:00Few Clouds19°C4 mph, SE21%10000m1014hPa88%
13-Jun-2024 18:00Broken Clouds18°C4 mph, SE57%10000m1013hPa90%
13-Jun-2024 21:00Broken Clouds18°C4 mph, SE71%10000m1014hPa91%
14-Jun-2024 00:00Broken Clouds27°C9 mph, E57%10000m1015hPa54%
14-Jun-2024 03:00Clear Sky30°C9 mph, E5%10000m1013hPa45%
14-Jun-2024 06:00Clear Sky29°C9 mph, E6%10000m1011hPa48%
14-Jun-2024 09:00Clear Sky22°C4 mph, E9%10000m1013hPa75%
14-Jun-2024 12:00Few Clouds20°C4 mph, SE13%10000m1014hPa88%
14-Jun-2024 15:00Few Clouds20°C4 mph, E19%10000m1014hPa92%
14-Jun-2024 18:00Few Clouds20°C4 mph, SE18%10000m1013hPa93%
14-Jun-2024 21:00Broken Clouds19°C4 mph, SE57%10000m1014hPa93%
15-Jun-2024 00:00Broken Clouds26°C7 mph, SE70%10000m1016hPa59%
15-Jun-2024 03:00Clear Sky29°C7 mph, E10%10000m1014hPa46%
15-Jun-2024 06:00Clear Sky29°C9 mph, E8%10000m1012hPa51%
15-Jun-2024 09:00Clear Sky22°C4 mph, E7%10000m1013hPa81%
15-Jun-2024 12:00Clear Sky20°C7 mph, SE6%10000m1015hPa93%
15-Jun-2024 15:00Clear Sky20°C4 mph, E5%10000m1014hPa94%
15-Jun-2024 18:00Clear Sky19°C4 mph, SE3%10000m1014hPa92%
15-Jun-2024 21:00Clear Sky19°C7 mph, SE0%10000m1015hPa90%
16-Jun-2024 00:00Clear Sky27°C13 mph, SE2%10000m1017hPa46%
16-Jun-2024 03:00Clear Sky29°C13 mph, SE5%10000m1015hPa35%
16-Jun-2024 06:00Clear Sky28°C13 mph, SE5%10000m1014hPa41%
16-Jun-2024 09:00Clear Sky21°C7 mph, SE0%10000m1015hPa69%
16-Jun-2024 12:00Clear Sky19°C7 mph, SE1%10000m1016hPa82%
16-Jun-2024 15:00Clear Sky19°C7 mph, SE4%10000m1016hPa82%
16-Jun-2024 18:00Clear Sky18°C7 mph, SE5%10000m1015hPa76%
16-Jun-2024 21:00Clear Sky20°C9 mph, SE5%10000m1016hPa75%
17-Jun-2024 00:00Clear Sky26°C16 mph, SE4%10000m1017hPa43%
17-Jun-2024 03:00Clear Sky28°C13 mph, SE1%10000m1015hPa37%
17-Jun-2024 06:00Clear Sky27°C13 mph, SE1%10000m1014hPa43%
17-Jun-2024 09:00Clear Sky21°C7 mph, SE0%10000m1015hPa66%
17-Jun-2024 12:00Clear Sky18°C7 mph, SE0%10000m1016hPa78%
17-Jun-2024 15:00Clear Sky18°C7 mph, SE5%10000m1015hPa75%
17-Jun-2024 18:00Clear Sky18°C7 mph, SE3%10000m1015hPa74%
17-Jun-2024 21:00Clear Sky19°C7 mph, SE5%10000m1015hPa75%
18-Jun-2024 00:00Clear Sky26°C13 mph, SE3%10000m1017hPa45%